Time;durP1;ratioP1;P1;durP2;ratioP2;P2;SDS_P1;SDS_P2;PMS_P1;PMS_P2;Temp;Humidity;BMP_temperature;BMP_pressure;BME280_temperature;BME280_humidity;BME280_pressure;Samples;Min_cycle;Max_cycle;Signal;HPM_P1;HPM_P2
2022/10/28 00:01:39;;;;;;;12.13;6.10;;;14.40;99.90;;;;;;7406701;19;19982;-94
2022/10/28 00:04:08;;;;;;;11.88;5.65;;;14.40;99.90;;;;;;7409822;19;19922;-94
2022/10/28 00:06:38;;;;;;;14.07;6.22;;;14.30;99.90;;;;;;7408181;19;19922;-93
2022/10/28 00:09:07;;;;;;;13.32;6.40;;;14.30;99.90;;;;;;7407015;19;19992;-95
2022/10/28 00:11:37;;;;;;;12.13;5.32;;;14.30;99.90;;;;;;7404646;19;19919;-95
2022/10/28 00:14:12;;;;;;;11.30;6.35;;;14.30;99.90;;;;;;7406016;19;20342;-93
2022/10/28 00:16:41;;;;;;;14.68;7.90;;;14.30;99.90;;;;;;7410129;19;19914;-94
2022/10/28 00:19:13;;;;;;;16.85;7.68;;;14.30;99.90;;;;;;7410657;19;19942;-93
2022/10/28 00:21:44;;;;;;;12.75;6.88;;;14.30;99.90;;;;;;7412602;19;19951;-93
2022/10/28 00:24:15;;;;;;;11.90;7.38;;;14.30;99.90;;;;;;7409264;19;19914;-93
2022/10/28 00:26:45;;;;;;;15.38;7.38;;;14.30;99.90;;;;;;7413605;19;19934;-93
2022/10/28 00:29:18;;;;;;;15.32;7.18;;;14.30;99.90;;;;;;7406309;19;19915;-93
2022/10/28 00:31:48;;;;;;;11.63;6.35;;;14.40;99.90;;;;;;7405922;19;19911;-94
2022/10/28 00:34:20;;;;;;;13.77;7.40;;;14.40;99.90;;;;;;7406481;19;20345;-94
2022/10/28 00:36:49;;;;;;;10.02;5.78;;;14.40;99.90;;;;;;7401074;19;19922;-93
2022/10/28 00:39:20;;;;;;;14.30;6.03;;;14.40;99.90;;;;;;7400266;19;19922;-91
2022/10/28 00:41:51;;;;;;;12.35;6.82;;;14.50;99.90;;;;;;7409419;19;20021;-93
2022/10/28 00:45:00;;;;;;;12.70;6.13;;;14.50;99.90;;;;;;7404718;19;20297;-93
2022/10/28 00:47:50;;;;;;;17.30;6.72;;;14.60;99.90;;;;;;7402651;19;19919;-93
2022/10/28 00:50:45;;;;;;;13.18;6.88;;;14.70;99.90;;;;;;7404806;19;20335;-92
2022/10/28 00:53:18;;;;;;;14.10;5.97;;;14.70;99.90;;;;;;7405344;19;19925;-92
2022/10/28 00:55:49;;;;;;;15.63;6.40;;;14.70;99.90;;;;;;7403571;19;19918;-92
2022/10/28 00:58:20;;;;;;;14.38;6.55;;;14.70;99.90;;;;;;7406287;19;20348;-92
2022/10/28 01:00:52;;;;;;;15.13;7.20;;;14.70;99.90;;;;;;7407340;19;19926;-92
2022/10/28 01:03:20;;;;;;;12.48;5.90;;;14.70;99.90;;;;;;7404651;19;20256;-92
2022/10/28 01:05:51;;;;;;;12.23;5.63;;;14.70;99.90;;;;;;7404286;19;20298;-92
2022/10/28 01:08:20;;;;;;;13.70;6.78;;;14.70;99.90;;;;;;7404619;19;19926;-92
2022/10/28 01:11:13;;;;;;;15.23;8.00;;;14.70;99.90;;;;;;7405265;19;20318;-92
2022/10/28 01:13:50;;;;;;;11.40;7.45;;;14.60;99.90;;;;;;7403832;19;19918;-92
2022/10/28 01:16:31;;;;;;;15.10;6.95;;;14.70;99.90;;;;;;7407041;19;19915;-93
2022/10/28 01:19:17;;;;;;;13.57;6.05;;;14.70;99.90;;;;;;7404630;19;19974;-93
2022/10/28 01:22:06;;;;;;;21.95;7.45;;;14.80;99.90;;;;;;7406366;19;19925;-92
2022/10/28 01:25:06;;;;;;;13.27;6.32;;;14.70;99.90;;;;;;7406543;19;20353;-93
2022/10/28 01:28:03;;;;;;;15.70;7.28;;;14.80;99.90;;;;;;7401580;19;20332;-92
2022/10/28 01:30:43;;;;;;;17.25;6.38;;;14.80;99.90;;;;;;7408855;19;19922;-92
2022/10/28 01:33:23;;;;;;;13.68;7.75;;;14.80;99.90;;;;;;7404027;19;19914;-92
2022/10/28 01:35:56;;;;;;;13.10;7.70;;;14.80;99.90;;;;;;7408259;19;19974;-92
2022/10/28 01:38:34;;;;;;;15.30;7.57;;;14.70;99.90;;;;;;7404999;19;19929;-93
2022/10/28 01:41:11;;;;;;;14.73;6.38;;;14.70;99.90;;;;;;7402109;19;19918;-92
2022/10/28 01:43:47;;;;;;;11.43;6.22;;;14.70;99.90;;;;;;7411719;19;19919;-92
2022/10/28 01:46:23;;;;;;;17.52;7.38;;;14.60;99.90;;;;;;7410033;19;20280;-92
2022/10/28 01:49:00;;;;;;;16.27;6.88;;;14.60;99.90;;;;;;7410745;19;20673;-93
2022/10/28 01:51:34;;;;;;;11.70;6.68;;;14.60;99.90;;;;;;7412378;19;20325;-92
2022/10/28 01:54:08;;;;;;;14.82;9.05;;;14.50;99.90;;;;;;7411590;19;19919;-93
2022/10/28 01:56:40;;;;;;;16.30;8.13;;;14.50;99.90;;;;;;7406205;19;19929;-92
2022/10/28 01:59:13;;;;;;;13.05;7.88;;;14.40;99.90;;;;;;7413432;19;19947;-93
2022/10/28 02:01:42;;;;;;;15.85;6.60;;;14.30;99.90;;;;;;7413340;19;19990;-93
2022/10/28 02:04:13;;;;;;;14.32;7.65;;;14.20;99.90;;;;;;7413338;19;19922;-93
2022/10/28 02:06:44;;;;;;;13.38;7.28;;;14.10;99.90;;;;;;7407684;19;19927;-93
2022/10/28 02:09:26;;;;;;;17.60;7.57;;;14.10;99.90;;;;;;7410279;19;19990;-92
2022/10/28 02:12:30;;;;;;;16.27;7.28;;;14.00;99.90;;;;;;7411884;19;19938;-93
2022/10/28 02:15:21;;;;;;;14.25;8.38;;;13.90;99.90;;;;;;7409643;19;19930;-93
2022/10/28 02:18:06;;;;;;;16.42;7.65;;;13.80;99.90;;;;;;7408139;19;20268;-93
2022/10/28 02:20:48;;;;;;;15.50;7.32;;;13.70;99.90;;;;;;7411211;19;20275;-93
2022/10/28 02:23:26;;;;;;;12.68;7.03;;;13.70;99.90;;;;;;7410205;19;20269;-92
2022/10/28 02:26:01;;;;;;;13.38;7.95;;;13.70;99.90;;;;;;7409596;19;20020;-93
2022/10/28 02:28:41;;;;;;;17.75;8.35;;;13.70;99.90;;;;;;7408412;19;19934;-92
2022/10/28 02:31:19;;;;;;;14.95;7.72;;;13.70;99.90;;;;;;7410681;19;19924;-93
2022/10/28 02:33:53;;;;;;;17.20;8.45;;;13.60;99.90;;;;;;7409698;19;19970;-92
2022/10/28 02:36:27;;;;;;;14.88;8.32;;;13.60;99.90;;;;;;7411186;19;19926;-92
2022/10/28 02:38:59;;;;;;;20.88;8.02;;;13.50;99.90;;;;;;7411441;19;19929;-92
2022/10/28 02:41:32;;;;;;;18.25;9.38;;;13.50;99.90;;;;;;7412409;19;19929;-92
2022/10/28 02:44:07;;;;;;;21.25;10.73;;;13.50;99.90;;;;;;7408394;19;19930;-92
2022/10/28 02:46:39;;;;;;;17.05;8.10;;;13.50;99.90;;;;;;7407504;19;19907;-93
2022/10/28 02:49:10;;;;;;;16.98;8.07;;;13.50;99.90;;;;;;7403209;19;19923;-92
2022/10/28 02:51:46;;;;;;;14.52;8.20;;;13.50;99.90;;;;;;7411415;19;20344;-92
2022/10/28 02:54:19;;;;;;;17.10;9.13;;;13.50;99.90;;;;;;7408743;19;20328;-93
2022/10/28 02:56:53;;;;;;;21.83;9.30;;;13.50;99.90;;;;;;7408661;19;19974;-92
2022/10/28 02:59:22;;;;;;;18.98;9.02;;;13.40;99.90;;;;;;7407018;19;19938;-93
2022/10/28 03:01:50;;;;;;;18.08;7.85;;;13.30;99.90;;;;;;7429538;19;19925;-92
2022/10/28 03:04:19;;;;;;;20.10;8.88;;;13.30;99.90;;;;;;7410142;19;19928;-93
2022/10/28 03:06:51;;;;;;;18.83;8.32;;;13.30;99.90;;;;;;7410637;19;19922;-92
2022/10/28 03:09:20;;;;;;;19.35;9.63;;;13.30;99.90;;;;;;7410188;19;19922;-94
2022/10/28 03:12:09;;;;;;;15.85;7.07;;;13.40;99.90;;;;;;7410071;19;20336;-92
2022/10/28 03:14:38;;;;;;;17.38;8.05;;;13.40;99.90;;;;;;7407962;19;19918;-92
2022/10/28 03:17:08;;;;;;;18.40;10.02;;;13.40;99.90;;;;;;7407722;19;19925;-92
2022/10/28 03:19:37;;;;;;;14.80;8.30;;;13.50;99.90;;;;;;7408161;19;20035;-92
2022/10/28 03:22:09;;;;;;;15.07;7.45;;;13.70;99.90;;;;;;7412019;19;20348;-92
2022/10/28 03:24:38;;;;;;;21.08;10.20;;;13.70;99.90;;;;;;7408350;19;19943;-92
2022/10/28 03:27:09;;;;;;;18.92;9.35;;;13.90;99.90;;;;;;7406372;19;19911;-92
2022/10/28 03:29:37;;;;;;;;;;;13.90;99.90;;;;;;7409056;19;19922;-93
2022/10/28 03:32:07;;;;;;;12.40;8.00;;;13.90;99.90;;;;;;7410910;19;19929;-92
2022/10/28 03:34:36;;;;;;;19.58;8.77;;;13.80;99.90;;;;;;7408292;19;19933;-92
2022/10/28 03:37:04;;;;;;;16.42;8.13;;;13.80;99.90;;;;;;7409114;19;19923;-92
2022/10/28 03:39:36;;;;;;;15.88;9.38;;;13.80;99.90;;;;;;7403203;19;19924;-90
2022/10/28 03:42:05;;;;;;;16.45;8.38;;;13.70;99.90;;;;;;7411366;19;19921;-92
2022/10/28 03:44:34;;;;;;;20.95;9.55;;;13.70;99.90;;;;;;7408819;19;20336;-92
2022/10/28 03:47:03;;;;;;;17.30;8.95;;;13.60;99.90;;;;;;7410298;19;19915;-93
2022/10/28 03:49:32;;;;;;;17.40;9.90;;;13.60;99.90;;;;;;7405642;19;20344;-92
2022/10/28 03:52:01;;;;;;;16.45;9.32;;;13.50;99.90;;;;;;7411170;19;19930;-93
2022/10/28 03:54:29;;;;;;;18.13;9.88;;;13.50;99.90;;;;;;7407044;19;19921;-91
2022/10/28 03:57:01;;;;;;;17.45;8.73;;;13.50;99.90;;;;;;7403371;19;19925;-93
2022/10/28 03:59:30;;;;;;;15.13;8.82;;;13.40;99.90;;;;;;7408959;19;19922;-93
2022/10/28 04:01:59;;;;;;;15.18;7.28;;;13.40;99.90;;;;;;7409906;19;19914;-93
2022/10/28 04:04:28;;;;;;;15.52;8.02;;;13.30;99.90;;;;;;7408766;19;20264;-92
2022/10/28 04:06:56;;;;;;;14.40;8.75;;;13.30;99.90;;;;;;7408702;19;19923;-92
2022/10/28 04:09:25;;;;;;;20.55;9.57;;;13.30;99.90;;;;;;7406262;19;19932;-93
2022/10/28 04:11:54;;;;;;;19.98;8.93;;;13.30;99.90;;;;;;7409178;19;20348;-93
2022/10/28 04:14:26;;;;;;;19.30;9.50;;;13.40;99.90;;;;;;7406271;19;20248;-93
2022/10/28 04:16:55;;;;;;;17.92;9.73;;;13.40;99.90;;;;;;7406200;19;19926;-93
2022/10/28 04:19:24;;;;;;;20.23;9.25;;;13.40;99.90;;;;;;7405623;19;19918;-92
2022/10/28 04:21:53;;;;;;;18.48;9.25;;;13.40;99.90;;;;;;7412535;19;19951;-92
2022/10/28 04:24:22;;;;;;;16.05;8.13;;;13.50;99.90;;;;;;7415345;19;19928;-92
2022/10/28 04:26:51;;;;;;;20.95;10.13;;;13.40;99.90;;;;;;7406773;19;19927;-92
2022/10/28 04:29:21;;;;;;;25.80;10.65;;;13.40;99.90;;;;;;7405937;19;19925;-92
2022/10/28 04:31:53;;;;;;;18.08;8.63;;;13.30;99.90;;;;;;7409008;19;19974;-92
2022/10/28 04:34:22;;;;;;;20.45;8.57;;;13.30;99.90;;;;;;7405814;19;20233;-93
2022/10/28 04:36:50;;;;;;;19.85;9.20;;;13.30;99.90;;;;;;7406072;19;19923;-91
2022/10/28 04:39:20;;;;;;;18.05;8.07;;;13.30;99.90;;;;;;7408603;19;19922;-92
2022/10/28 04:41:48;;;;;;;15.02;8.70;;;13.30;99.90;;;;;;7405988;19;19919;-92
2022/10/28 04:44:17;;;;;;;15.88;9.50;;;13.30;99.90;;;;;;7406314;19;19922;-91
2022/10/28 04:46:46;;;;;;;14.75;8.68;;;13.20;99.90;;;;;;7404700;19;19926;-92
2022/10/28 04:49:18;;;;;;;21.15;9.00;;;13.20;99.90;;;;;;7405961;19;19935;-93
2022/10/28 04:51:47;;;;;;;22.10;9.00;;;13.20;99.90;;;;;;7408421;19;20282;-93
2022/10/28 04:54:16;;;;;;;22.42;10.80;;;13.20;99.90;;;;;;7397470;19;19951;-93
2022/10/28 04:56:45;;;;;;;15.98;8.60;;;13.20;99.90;;;;;;7407069;19;20326;-93
2022/10/28 04:59:14;;;;;;;19.63;8.95;;;13.20;99.90;;;;;;7400863;19;20016;-94
2022/10/28 05:01:43;;;;;;;16.98;9.27;;;13.20;99.90;;;;;;7408212;19;20336;-93
2022/10/28 05:04:12;;;;;;;18.92;9.98;;;13.20;99.90;;;;;;7404906;19;19921;-94
2022/10/28 05:06:43;;;;;;;114.93;17.10;;;13.20;99.90;;;;;;7408167;19;20245;-93
2022/10/28 05:09:12;;;;;;;15.63;6.72;;;13.20;99.90;;;;;;7403970;19;19915;-93
2022/10/28 05:11:41;;;;;;;17.27;7.82;;;13.20;99.90;;;;;;7404440;19;19918;-93
2022/10/28 05:14:10;;;;;;;55.90;11.55;;;13.30;99.90;;;;;;7403599;19;19974;-93
2022/10/28 05:16:39;;;;;;;24.42;9.88;;;13.20;99.90;;;;;;7404532;19;20276;-94
2022/10/28 05:19:08;;;;;;;61.70;10.70;;;13.20;99.90;;;;;;7404502;19;20268;-93
2022/10/28 05:21:37;;;;;;;16.98;7.97;;;13.30;99.90;;;;;;7409628;19;19921;-93
2022/10/28 05:24:09;;;;;;;17.33;7.75;;;13.20;99.90;;;;;;7412051;19;19970;-93
2022/10/28 05:26:38;;;;;;;20.20;7.32;;;13.20;99.90;;;;;;7413620;19;19986;-94
2022/10/28 05:29:07;;;;;;;18.70;7.68;;;13.20;99.90;;;;;;7408060;19;20327;-94
2022/10/28 05:31:37;;;;;;;13.63;7.57;;;13.20;99.90;;;;;;7411018;19;20243;-93
2022/10/28 05:34:06;;;;;;;26.70;7.28;;;13.30;99.90;;;;;;7406615;19;20340;-93
2022/10/28 05:36:34;;;;;;;15.57;8.57;;;13.20;99.90;;;;;;7405291;19;20283;-93
2022/10/28 05:39:03;;;;;;;15.32;7.15;;;13.20;99.90;;;;;;7408632;19;19936;-92
2022/10/28 05:41:35;;;;;;;16.33;6.95;;;13.30;99.90;;;;;;7406309;19;19941;-93
2022/10/28 05:44:04;;;;;;;13.32;6.55;;;13.20;99.90;;;;;;7414044;19;19933;-94
2022/10/28 05:46:33;;;;;;;18.35;7.80;;;13.20;99.90;;;;;;7410763;19;19929;-93
2022/10/28 05:49:03;;;;;;;13.02;7.05;;;13.20;99.90;;;;;;7407920;19;19921;-94
2022/10/28 05:51:31;;;;;;;;;;;13.20;99.90;;;;;;7412985;19;19914;-93
2022/10/28 05:54:00;;;;;;;13.98;7.70;;;13.10;99.90;;;;;;7410604;19;19910;-93
2022/10/28 05:56:29;;;;;;;18.80;8.07;;;13.10;99.90;;;;;;7412030;19;19930;-90
2022/10/28 05:59:01;;;;;;;17.92;7.63;;;13.10;99.90;;;;;;7407366;19;19925;-93
2022/10/28 06:01:30;;;;;;;18.08;8.13;;;13.20;99.90;;;;;;7411697;19;20351;-93
2022/10/28 06:03:59;;;;;;;12.77;6.20;;;13.20;99.90;;;;;;7410170;19;19922;-92
2022/10/28 06:06:30;;;;;;;620.35;67.18;;;13.20;99.90;;;;;;7413320;19;19929;-91
2022/10/28 06:08:59;;;;;;;16.92;8.52;;;13.20;99.90;;;;;;7407108;19;20276;-88
2022/10/28 06:11:28;;;;;;;13.63;7.82;;;13.30;99.90;;;;;;7405748;19;19919;-88
2022/10/28 06:13:59;;;;;;;16.17;6.65;;;13.20;99.90;;;;;;7412386;19;19919;-90
2022/10/28 06:16:28;;;;;;;13.70;6.93;;;13.20;99.90;;;;;;7412960;19;20301;-94
2022/10/28 06:18:57;;;;;;;12.88;7.10;;;13.20;99.90;;;;;;7406882;19;20251;-91
2022/10/28 06:21:26;;;;;;;15.65;7.70;;;13.20;99.90;;;;;;7411327;19;19926;-89
2022/10/28 06:23:55;;;;;;;17.40;7.45;;;13.20;99.90;;;;;;7407308;19;20380;-90
2022/10/28 06:26:24;;;;;;;17.95;8.82;;;13.20;99.90;;;;;;7409256;19;19922;-89
2022/10/28 06:28:53;;;;;;;14.57;6.63;;;13.20;99.90;;;;;;7406109;19;19925;-89
2022/10/28 06:31:25;;;;;;;13.80;7.75;;;13.20;99.90;;;;;;7410438;19;19914;-87
2022/10/28 06:33:54;;;;;;;13.27;7.50;;;13.30;99.90;;;;;;7394461;19;19997;-88
2022/10/28 06:36:23;;;;;;;16.02;8.10;;;13.30;99.90;;;;;;7410085;19;19932;-88
2022/10/28 06:38:55;;;;;;;12.77;7.47;;;13.30;99.90;;;;;;7403067;19;19996;-88
2022/10/28 06:41:24;;;;;;;17.15;6.65;;;13.40;99.90;;;;;;7409236;19;19925;-88
2022/10/28 06:43:52;;;;;;;11.85;6.07;;;13.40;99.90;;;;;;7410921;19;19918;-88
2022/10/28 06:46:24;;;;;;;16.50;6.72;;;13.50;99.90;;;;;;7409767;19;19918;-89
2022/10/28 06:48:55;;;;;;;12.23;6.45;;;13.50;99.90;;;;;;7408086;19;19919;-89
2022/10/28 06:51:24;;;;;;;10.50;5.88;;;13.60;99.90;;;;;;7409579;19;19923;-89
2022/10/28 06:53:54;;;;;;;15.20;7.65;;;13.60;99.90;;;;;;7408749;19;19919;-89
2022/10/28 06:56:23;;;;;;;11.50;6.43;;;13.70;99.90;;;;;;7410912;19;19922;-88
2022/10/28 06:58:52;;;;;;;12.23;6.10;;;13.80;99.90;;;;;;7410331;19;20455;-89
2022/10/28 07:01:24;;;;;;;12.05;5.85;;;13.90;99.90;;;;;;7409379;19;19919;-90
2022/10/28 07:03:53;;;;;;;14.43;7.13;;;13.90;99.90;;;;;;7410762;19;19918;-89
2022/10/28 07:06:22;;;;;;;11.18;4.95;;;14.00;99.90;;;;;;7407088;19;19914;-89
2022/10/28 07:08:51;;;;;;;12.82;5.20;;;14.10;99.90;;;;;;7404375;19;20349;-89
2022/10/28 07:11:20;;;;;;;11.77;5.40;;;14.20;99.90;;;;;;7408763;19;19985;-88
2022/10/28 07:13:49;;;;;;;9.95;5.03;;;14.30;99.90;;;;;;7408808;19;19926;-89
2022/10/28 07:16:17;;;;;;;13.57;6.10;;;14.40;99.90;;;;;;7406840;19;19922;-89
2022/10/28 07:18:49;;;;;;;12.40;5.78;;;14.70;99.90;;;;;;7408248;19;20344;-89
2022/10/28 07:21:20;;;;;;;12.13;5.47;;;14.90;99.90;;;;;;7408805;19;20362;-90
2022/10/28 07:23:49;;;;;;;15.27;7.07;;;15.30;99.90;;;;;;7399684;19;19929;-89
2022/10/28 07:26:18;;;;;;;12.05;4.72;;;15.70;99.90;;;;;;7410684;19;19918;-90
2022/10/28 07:28:47;;;;;;;11.18;5.97;;;16.10;99.90;;;;;;7405551;19;19919;-89
2022/10/28 07:31:16;;;;;;;11.45;5.68;;;16.30;99.90;;;;;;7411188;19;19929;-88
2022/10/28 07:33:45;;;;;;;11.02;6.22;;;16.60;99.90;;;;;;7407490;19;19917;-89
2022/10/28 07:36:17;;;;;;;13.73;6.28;;;16.90;99.90;;;;;;7409998;19;19937;-88
2022/10/28 07:38:46;;;;;;;13.30;6.18;;;17.20;99.90;;;;;;7399275;19;19932;-89
2022/10/28 07:41:15;;;;;;;13.45;6.13;;;17.50;99.90;;;;;;7410463;19;19990;-89
2022/10/28 07:43:44;;;;;;;14.30;6.30;;;17.50;99.90;;;;;;7400685;19;19915;-88
2022/10/28 07:46:13;;;;;;;10.60;5.30;;;17.10;99.90;;;;;;7404855;19;19982;-89
2022/10/28 07:48:42;;;;;;;8.88;4.07;;;16.60;99.90;;;;;;7406172;19;20260;-89
2022/10/28 07:51:13;;;;;;;14.35;5.85;;;16.30;99.90;;;;;;7405061;19;20492;-89
2022/10/28 07:53:44;;;;;;;11.57;4.70;;;16.20;99.90;;;;;;7399386;19;19914;-89
2022/10/28 07:56:15;;;;;;;9.20;3.92;;;16.10;99.90;;;;;;7406044;19;19925;-89
2022/10/28 07:58:45;;;;;;;12.05;5.95;;;16.00;99.90;;;;;;7396507;19;19915;-89
2022/10/28 08:01:16;;;;;;;12.10;4.78;;;16.00;99.90;;;;;;7407970;19;19966;-88
2022/10/28 08:03:46;;;;;;;13.70;6.95;;;16.10;99.90;;;;;;7406271;19;19929;-89
2022/10/28 08:06:18;;;;;;;11.32;4.60;;;16.10;99.90;;;;;;7409058;19;19939;-88
2022/10/28 08:08:54;;;;;;;11.63;5.63;;;16.10;99.90;;;;;;7409428;19;19914;-89
2022/10/28 08:11:24;;;;;;;12.23;5.45;;;16.20;99.90;;;;;;7408890;19;19915;-89
2022/10/28 08:13:54;;;;;;;13.32;5.25;;;16.30;99.90;;;;;;7397545;19;19925;-89
2022/10/28 08:16:22;;;;;;;;;;;16.30;99.90;;;;;;7408380;19;21895;-89
2022/10/28 08:18:52;;;;;;;11.75;4.80;;;16.40;99.90;;;;;;7396283;19;19990;-89
2022/10/28 08:21:20;;;;;;;16.45;5.35;;;16.40;99.90;;;;;;7406990;19;19926;-89
2022/10/28 08:23:52;;;;;;;12.10;6.55;;;16.40;99.90;;;;;;7406229;19;20332;-90
2022/10/28 08:26:22;;;;;;;10.93;5.78;;;16.50;99.90;;;;;;7405421;19;19922;-89
2022/10/28 08:28:50;;;;;;;8.90;4.65;;;16.50;99.90;;;;;;7404040;19;19920;-91
2022/10/28 08:31:20;;;;;;;12.82;5.85;;;16.50;99.90;;;;;;7409774;19;19910;-91
2022/10/28 08:33:48;;;;;;;16.48;5.88;;;16.60;99.90;;;;;;7407833;19;19915;-90
2022/10/28 08:36:19;;;;;;;11.38;5.13;;;16.60;99.90;;;;;;7406519;19;19946;-90
2022/10/28 08:38:48;;;;;;;10.07;4.47;;;16.70;99.90;;;;;;7405061;19;19915;-90
2022/10/28 08:41:31;;;;;;;10.15;5.47;;;16.70;99.90;;;;;;7404215;19;20394;-90
2022/10/28 08:44:19;;;;;;;12.55;4.75;;;16.70;99.90;;;;;;7407165;19;19990;-90
2022/10/28 08:46:58;;;;;;;16.00;5.53;;;16.80;99.90;;;;;;7404504;19;19922;-89
2022/10/28 08:49:28;;;;;;;15.13;5.93;;;16.90;99.90;;;;;;7402763;19;20352;-90
2022/10/28 08:52:02;;;;;;;9.38;3.80;;;17.00;99.90;;;;;;7404375;19;19918;-90
2022/10/28 08:54:37;;;;;;;17.15;5.30;;;17.10;99.90;;;;;;7402230;19;19919;-90
2022/10/28 08:57:18;;;;;;;10.38;5.13;;;17.10;99.90;;;;;;7405811;19;19926;-90
2022/10/28 08:59:48;;;;;;;11.85;4.80;;;17.20;99.90;;;;;;7405039;19;20440;-89
2022/10/28 09:02:22;;;;;;;11.25;5.40;;;17.30;99.90;;;;;;7408139;19;20423;-89
2022/10/28 09:04:57;;;;;;;12.52;5.32;;;17.30;99.90;;;;;;7404574;19;19919;-89
2022/10/28 09:07:26;;;;;;;10.50;5.57;;;17.40;99.90;;;;;;7405945;19;19919;-88
2022/10/28 09:09:57;;;;;;;8.48;3.55;;;17.50;99.90;;;;;;7396620;19;19922;-90
2022/10/28 09:12:38;;;;;;;10.57;4.60;;;17.50;99.90;;;;;;7403424;19;19922;-89
2022/10/28 09:15:29;;;;;;;11.82;3.95;;;17.60;99.90;;;;;;7407762;19;20345;-89
2022/10/28 09:18:04;;;;;;;10.73;4.53;;;17.70;99.90;;;;;;7404387;19;19921;-90
2022/10/28 09:20:45;;;;;;;14.40;5.03;;;17.80;99.90;;;;;;7402253;19;19927;-88
2022/10/28 09:23:22;;;;;;;10.77;4.90;;;17.80;99.90;;;;;;7407084;19;19926;-89
2022/10/28 09:26:04;;;;;;;9.27;4.70;;;17.90;99.90;;;;;;7403018;19;19924;-90
2022/10/28 09:28:53;;;;;;;11.32;4.70;;;17.90;99.90;;;;;;7397858;19;19932;-89
2022/10/28 09:31:30;;;;;;;6.93;3.30;;;17.90;99.90;;;;;;7407359;19;19915;-91
2022/10/28 09:34:09;;;;;;;12.45;4.13;;;18.00;99.90;;;;;;7403332;19;19914;-89
2022/10/28 09:36:43;;;;;;;8.52;3.42;;;18.00;99.90;;;;;;7409579;19;19918;-89
2022/10/28 09:39:18;;;;;;;11.93;3.83;;;18.00;99.90;;;;;;7402921;19;19915;-89
2022/10/28 09:41:48;;;;;;;12.10;4.35;;;18.00;99.90;;;;;;7406386;19;19929;-89
2022/10/28 09:44:24;;;;;;;11.57;5.50;;;18.10;99.90;;;;;;7406768;19;19978;-89
2022/10/28 09:46:56;;;;;;;11.15;3.97;;;18.10;99.90;;;;;;7405154;19;19911;-88
2022/10/28 09:49:32;;;;;;;10.20;3.35;;;18.10;99.90;;;;;;7401194;19;19914;-89
2022/10/28 09:52:07;;;;;;;13.35;5.32;;;18.20;99.90;;;;;;7405976;19;19919;-89
2022/10/28 09:54:40;;;;;;;7.75;4.00;;;18.20;99.90;;;;;;7406531;19;20368;-88
2022/10/28 09:57:09;;;;;;;11.40;3.95;;;18.30;99.90;;;;;;7406453;19;19918;-88
2022/10/28 09:59:42;;;;;;;11.35;5.10;;;18.20;99.90;;;;;;7402312;19;19910;-88
2022/10/28 10:02:27;;;;;;;7.93;3.63;;;18.30;99.90;;;;;;7396656;19;19929;-88
2022/10/28 10:04:57;;;;;;;12.95;3.47;;;18.30;99.90;;;;;;7402151;19;19946;-87
2022/10/28 10:07:36;;;;;;;10.95;3.55;;;18.30;99.90;;;;;;7403282;19;19927;-88
2022/10/28 10:10:13;;;;;;;12.48;4.65;;;18.40;99.90;;;;;;7408947;19;19925;-88
2022/10/28 10:12:43;;;;;;;7.72;3.67;;;18.40;99.90;;;;;;7408683;19;19977;-89
2022/10/28 10:15:27;;;;;;;8.88;3.60;;;18.40;99.90;;;;;;7408238;19;19922;-88
2022/10/28 10:17:59;;;;;;;9.50;4.60;;;18.50;99.90;;;;;;7404980;19;19929;-89
2022/10/28 10:20:27;;;;;;;6.35;3.10;;;18.60;99.90;;;;;;7409419;19;19926;-88
2022/10/28 10:22:56;;;;;;;9.48;3.20;;;18.60;99.90;;;;;;7412575;19;20010;-88
2022/10/28 10:25:29;;;;;;;8.75;3.90;;;18.70;99.90;;;;;;7409274;19;20376;-88
2022/10/28 10:28:03;;;;;;;8.10;2.92;;;18.70;99.90;;;;;;7408057;19;19925;-88
2022/10/28 10:30:37;;;;;;;7.25;2.75;;;18.70;99.90;;;;;;7410148;19;19952;-90
2022/10/28 10:33:09;;;;;;;10.35;3.90;;;18.80;99.90;;;;;;7410656;19;20812;-90
2022/10/28 10:35:39;;;;;;;8.50;3.40;;;18.80;99.90;;;;;;7409400;19;19922;-88
2022/10/28 10:38:09;;;;;;;8.60;2.90;;;18.90;99.90;;;;;;7399600;19;19926;-89
2022/10/28 10:40:51;;;;;;;12.68;3.85;;;18.90;99.90;;;;;;7411650;19;19958;-89
2022/10/28 10:43:25;;;;;;;10.70;3.63;;;18.90;99.90;;;;;;7409542;19;19918;-88
2022/10/28 10:46:03;;;;;;;12.18;3.55;;;19.00;99.90;;;;;;7410437;19;19919;-88
2022/10/28 10:48:35;;;;;;;17.25;5.45;;;19.00;99.90;;;;;;7409534;19;19922;-88
2022/10/28 10:51:08;;;;;;;11.73;3.88;;;19.00;99.90;;;;;;7408122;19;19919;-88
2022/10/28 10:53:38;;;;;;;9.95;2.58;;;19.00;99.90;;;;;;7400575;19;19914;-87
2022/10/28 10:56:10;;;;;;;10.90;4.05;;;19.00;99.90;;;;;;7407241;19;19931;-87
2022/10/28 10:58:42;;;;;;;8.73;5.38;;;19.00;99.90;;;;;;7408774;19;19974;-87
2022/10/28 11:01:21;;;;;;;10.50;2.90;;;19.00;99.90;;;;;;7409144;19;19922;-87
2022/10/28 11:03:52;;;;;;;8.07;3.50;;;19.10;99.90;;;;;;7408046;19;19935;-90
2022/10/28 11:06:24;;;;;;;8.55;3.47;;;19.10;99.90;;;;;;7409304;19;19918;-91
2022/10/28 11:09:00;;;;;;;7.65;3.20;;;19.10;99.90;;;;;;7410908;19;19986;-91
2022/10/28 11:11:36;;;;;;;7.60;2.45;;;19.10;99.90;;;;;;7407686;19;19915;-92
2022/10/28 11:14:08;;;;;;;14.48;4.57;;;19.20;99.90;;;;;;7407156;19;19925;-94
2022/10/28 11:16:49;;;;;;;8.18;2.65;;;19.20;99.90;;;;;;7405673;19;20249;-89
2022/10/28 11:19:23;;;;;;;6.97;2.22;;;19.20;99.90;;;;;;7409208;19;19925;-94
2022/10/28 11:22:14;;;;;;;7.60;2.95;;;19.30;99.90;;;;;;7410360;19;19919;-94
2022/10/28 11:24:56;;;;;;;9.77;2.70;;;19.30;99.90;;;;;;7407092;19;19925;-88
2022/10/28 11:27:35;;;;;;;9.18;2.35;;;19.40;99.90;;;;;;7410608;19;19942;-87
2022/10/28 11:30:07;;;;;;;9.55;3.28;;;19.40;99.90;;;;;;7405656;19;19918;-88
2022/10/28 11:32:51;;;;;;;8.70;2.78;;;19.40;99.90;;;;;;7407227;19;19926;-86
2022/10/28 11:35:40;;;;;;;10.20;2.83;;;19.50;99.90;;;;;;7410281;19;19992;-89
2022/10/28 11:38:24;;;;;;;8.20;3.10;;;19.50;99.90;;;;;;7406364;19;20359;-88
2022/10/28 11:41:12;;;;;;;10.55;2.95;;;19.50;99.90;;;;;;7409351;19;19982;-88
2022/10/28 11:43:49;;;;;;;9.95;3.05;;;19.50;99.90;;;;;;7406864;19;19911;-88
2022/10/28 11:46:36;;;;;;;10.32;2.70;;;19.50;99.90;;;;;;7408255;19;19915;-88
2022/10/28 11:49:42;;;;;;;10.38;2.88;;;19.60;99.90;;;;;;7406178;19;19921;-88
2022/10/28 11:52:24;;;;;;;13.98;3.55;;;19.70;99.90;;;;;;7404742;19;19914;-88
2022/10/28 11:55:03;;;;;;;9.05;3.20;;;19.80;99.90;;;;;;7410194;19;19917;-88
2022/10/28 11:57:45;;;;;;;10.15;2.55;;;19.80;99.90;;;;;;7410591;19;19939;-89
2022/10/28 12:00:44;;;;;;;5.07;2.45;;;19.90;99.90;;;;;;7404802;19;20021;-88
2022/10/28 12:03:34;;;;;;;11.68;3.22;;;20.00;99.90;;;;;;7402428;19;20312;-88
2022/10/28 12:06:18;;;;;;;8.80;2.85;;;20.00;99.90;;;;;;7404672;19;19923;-88
2022/10/28 12:09:03;;;;;;;10.60;3.38;;;19.90;99.90;;;;;;7409017;19;19919;-88
2022/10/28 12:11:44;;;;;;;9.27;4.43;;;19.90;99.90;;;;;;7405975;19;19923;-88
2022/10/28 12:14:21;;;;;;;9.32;3.35;;;19.90;99.90;;;;;;7405861;19;19918;-88
2022/10/28 12:16:56;;;;;;;10.57;3.85;;;19.80;99.90;;;;;;7406436;19;20299;-89
2022/10/28 12:19:29;;;;;;;8.85;3.47;;;19.80;99.90;;;;;;7407713;19;19925;-89
2022/10/28 12:22:07;;;;;;;8.82;2.78;;;19.80;99.90;;;;;;7407017;19;19983;-89
2022/10/28 12:24:39;;;;;;;14.32;4.15;;;19.80;99.90;;;;;;7406375;19;19978;-89
2022/10/28 12:27:14;;;;;;;12.60;4.50;;;19.80;99.90;;;;;;7408230;19;20352;-89
2022/10/28 12:29:47;;;;;;;9.68;3.67;;;19.80;99.90;;;;;;7404365;19;19937;-88
2022/10/28 12:32:22;;;;;;;10.23;4.43;;;19.80;99.90;;;;;;7401328;19;19929;-89
2022/10/28 12:34:56;;;;;;;10.07;2.90;;;19.90;99.90;;;;;;7405083;19;19925;-89
2022/10/28 12:37:34;;;;;;;10.73;4.35;;;19.80;99.90;;;;;;7405385;19;20359;-88
2022/10/28 12:40:09;;;;;;;9.98;3.33;;;19.90;99.90;;;;;;7405407;19;19915;-89
2022/10/28 12:42:42;;;;;;;10.23;3.58;;;19.90;99.90;;;;;;7404798;19;19930;-89
2022/10/28 12:45:15;;;;;;;9.45;3.88;;;19.90;99.90;;;;;;7404247;19;19911;-88
2022/10/28 12:47:51;;;;;;;12.23;4.55;;;19.80;99.90;;;;;;7404674;19;19981;-88
2022/10/28 12:50:26;;;;;;;;;;;19.90;99.90;;;;;;7406406;19;20391;-89
2022/10/28 12:53:16;;;;;;;17.20;6.57;;;19.80;99.90;;;;;;7405052;19;19978;-88
2022/10/28 12:55:51;;;;;;;11.63;4.20;;;19.80;99.90;;;;;;7405815;19;19930;-89
2022/10/28 12:58:25;;;;;;;10.02;4.10;;;19.80;99.90;;;;;;7404830;19;19918;-88
2022/10/28 13:00:58;;;;;;;11.02;3.85;;;19.80;99.90;;;;;;7404412;19;19926;-88
2022/10/28 13:03:27;;;;;;;11.13;3.60;;;19.80;99.90;;;;;;7404308;19;20275;-89
2022/10/28 13:06:11;;;;;;;10.63;4.65;;;19.80;99.90;;;;;;7404058;19;19919;-89
2022/10/28 13:09:16;;;;;;;8.32;3.00;;;19.80;99.90;;;;;;7404396;19;20252;-88
2022/10/28 13:12:08;;;;;;;7.60;2.53;;;19.80;99.90;;;;;;7402220;19;19917;-88